Time;durP1;ratioP1;P1;durP2;ratioP2;P2;SDS_P1;SDS_P2;PMS_P1;PMS_P2;Temp;Humidity;BMP_temperature;BMP_pressure;BME280_temperature;BME280_humidity;BME280_pressure;Samples;Min_cycle;Max_cycle;Signal;HPM_P1;HPM_P2
2022/03/20 00:01:25;;;;;;;71.57;29.67;;;1.40;90.00;;;;;;4412028;32;20220;-70
2022/03/20 00:03:52;;;;;;;66.10;29.00;;;1.40;90.00;;;;;;4425755;32;20142;-70
2022/03/20 00:06:19;;;;;;;65.67;30.03;;;1.40;89.80;;;;;;4413261;32;20179;-70
2022/03/20 00:08:47;;;;;;;63.00;28.73;;;1.40;89.10;;;;;;4411991;32;20608;-70
2022/03/20 00:11:14;;;;;;;61.50;28.80;;;1.40;90.00;;;;;;4413027;32;20166;-70
2022/03/20 00:13:42;;;;;;;64.40;28.23;;;1.40;89.90;;;;;;4412123;32;20190;-70
2022/03/20 00:16:10;;;;;;;63.07;28.57;;;1.40;90.20;;;;;;4411806;32;20655;-70
2022/03/20 00:18:37;;;;;;;58.27;27.60;;;1.40;90.20;;;;;;4412137;32;20171;-70
2022/03/20 00:21:04;;;;;;;63.97;28.37;;;1.40;89.80;;;;;;4412577;32;20500;-70
2022/03/20 00:23:32;;;;;;;59.93;26.23;;;1.40;89.50;;;;;;4411240;32;20230;-69
2022/03/20 00:25:59;;;;;;;58.13;26.57;;;1.30;90.10;;;;;;4412097;32;20614;-70
2022/03/20 00:28:27;;;;;;;59.10;26.60;;;1.30;88.80;;;;;;4412905;32;20194;-69
2022/03/20 00:30:55;;;;;;;59.00;26.60;;;1.30;89.50;;;;;;4425364;32;20142;-70
2022/03/20 00:33:22;;;;;;;62.47;27.93;;;1.30;88.80;;;;;;4411273;32;20507;-70
2022/03/20 00:35:50;;;;;;;57.10;26.80;;;1.30;89.20;;;;;;4409128;32;20171;-70
2022/03/20 00:38:18;;;;;;;60.27;27.23;;;1.30;88.90;;;;;;4408549;32;20182;-70
2022/03/20 00:40:46;;;;;;;63.50;27.43;;;1.30;89.60;;;;;;4408672;32;20208;-69
2022/03/20 00:43:13;;;;;;;59.57;27.23;;;1.20;89.30;;;;;;4408823;32;20256;-70
2022/03/20 00:45:40;;;;;;;62.13;26.90;;;1.10;90.30;;;;;;4408795;32;20594;-70
2022/03/20 00:48:08;;;;;;;62.30;28.03;;;1.10;90.50;;;;;;4408594;32;20183;-70
2022/03/20 00:50:36;;;;;;;63.23;27.83;;;1.10;90.40;;;;;;4410517;32;20139;-73
2022/03/20 00:53:03;;;;;;;57.97;27.17;;;1.00;91.60;;;;;;4408471;32;20186;-73
2022/03/20 00:55:32;;;;;;;65.63;28.83;;;1.00;92.50;;;;;;4408283;32;20202;-73
2022/03/20 00:57:59;;;;;;;60.27;26.97;;;0.90;92.40;;;;;;4408572;32;20199;-73
2022/03/20 01:00:26;;;;;;;60.43;27.67;;;0.90;92.70;;;;;;4411094;32;20568;-72
2022/03/20 01:02:54;;;;;;;65.13;29.17;;;0.80;92.80;;;;;;4411278;32;20198;-73
2022/03/20 01:05:21;;;;;;;65.80;28.93;;;0.80;92.10;;;;;;4425152;32;20481;-73
2022/03/20 01:07:49;;;;;;;70.13;28.70;;;0.80;92.30;;;;;;4411564;32;20491;-72
2022/03/20 01:10:16;;;;;;;69.07;29.53;;;0.80;93.60;;;;;;4425720;32;20143;-72
2022/03/20 01:12:43;;;;;;;61.83;29.57;;;0.70;93.80;;;;;;4410658;32;20171;-72
2022/03/20 01:15:12;;;;;;;67.47;30.83;;;0.70;94.20;;;;;;4411434;32;20175;-72
2022/03/20 01:17:40;;;;;;;61.50;29.13;;;0.70;94.40;;;;;;4411002;32;20258;-72
2022/03/20 01:20:09;;;;;;;64.07;29.70;;;0.70;94.70;;;;;;4411523;32;20237;-72
2022/03/20 01:22:40;;;;;;;69.90;30.73;;;0.60;94.70;;;;;;4406422;32;20179;-72
2022/03/20 01:25:08;;;;;;;71.63;31.30;;;0.60;95.40;;;;;;4409647;32;20674;-72
2022/03/20 01:27:36;;;;;;;70.20;30.80;;;0.50;96.30;;;;;;4397256;32;20518;-72
2022/03/20 01:30:05;;;;;;;72.40;30.83;;;0.50;96.10;;;;;;4415573;32;20174;-72
2022/03/20 01:32:32;;;;;;;70.10;31.70;;;0.50;96.40;;;;;;4396576;32;20189;-72
2022/03/20 01:34:59;;;;;;;70.33;31.03;;;0.50;96.50;;;;;;4395076;32;20226;-72
2022/03/20 01:37:26;;;;;;;70.10;31.30;;;0.50;96.60;;;;;;4396100;32;20530;-72
2022/03/20 01:39:54;;;;;;;69.60;30.73;;;0.40;96.90;;;;;;4408295;32;20168;-73
2022/03/20 01:42:22;;;;;;;67.43;30.30;;;0.40;96.60;;;;;;4407749;32;20509;-72
2022/03/20 01:44:50;;;;;;;64.00;28.67;;;0.30;96.80;;;;;;4409744;32;20190;-72
2022/03/20 01:47:17;;;;;;;64.67;29.73;;;0.30;96.80;;;;;;4396967;32;20167;-73
2022/03/20 01:49:45;;;;;;;69.57;30.63;;;0.30;97.30;;;;;;4410045;32;20216;-73
2022/03/20 01:52:13;;;;;;;67.97;30.57;;;0.30;97.70;;;;;;4410817;32;20157;-72
2022/03/20 01:54:44;;;;;;;64.77;29.90;;;0.30;98.00;;;;;;4395468;32;20168;-73
2022/03/20 01:57:23;;;;;;;70.07;30.40;;;0.40;98.20;;;;;;4409365;32;20178;-72
2022/03/20 01:59:51;;;;;;;69.03;31.50;;;0.40;98.90;;;;;;4410648;32;20495;-73
2022/03/20 02:02:22;;;;;;;68.90;30.93;;;0.40;98.50;;;;;;4395116;32;20179;-72
2022/03/20 02:04:49;;;;;;;66.90;30.67;;;0.40;98.50;;;;;;4408075;32;20225;-72
2022/03/20 02:07:16;;;;;;;78.40;31.20;;;0.40;98.70;;;;;;4395005;32;20183;-72
2022/03/20 02:09:43;;;;;;;70.43;30.73;;;0.40;98.80;;;;;;4407233;32;20170;-72
2022/03/20 02:12:11;;;;;;;71.97;31.07;;;0.40;99.70;;;;;;4395292;32;20201;-72
2022/03/20 02:14:40;;;;;;;69.43;32.30;;;0.30;99.30;;;;;;4395224;32;20624;-72
2022/03/20 02:17:11;;;;;;;71.03;31.77;;;0.30;99.90;;;;;;4395151;32;20182;-72
2022/03/20 02:19:39;;;;;;;74.33;32.13;;;0.30;99.90;;;;;;4409005;32;20198;-72
2022/03/20 02:22:06;;;;;;;67.60;31.20;;;0.20;99.90;;;;;;4395055;32;20241;-72
2022/03/20 02:24:33;;;;;;;71.80;31.77;;;0.20;99.90;;;;;;4408794;32;20204;-72
2022/03/20 02:27:27;;;;;;;73.17;32.07;;;0.30;99.90;;;;;;4394321;32;20492;-72
2022/03/20 02:30:00;;;;;;;72.23;31.77;;;0.20;99.90;;;;;;4406507;32;20171;-72
2022/03/20 02:32:30;;;;;;;66.83;32.07;;;0.20;99.90;;;;;;4408776;32;20134;-72
2022/03/20 02:35:04;;;;;;;70.50;31.40;;;0.20;99.90;;;;;;4396286;32;20220;-72
2022/03/20 02:37:34;;;;;;;71.33;31.30;;;0.20;99.90;;;;;;4394807;32;20216;-72
2022/03/20 02:40:03;;;;;;;64.83;30.50;;;0.10;99.90;;;;;;4394613;32;20178;-72
2022/03/20 02:42:30;;;;;;;67.77;30.20;;;0.00;99.90;;;;;;4396336;32;20174;-72
2022/03/20 02:45:04;;;;;;;68.63;30.83;;;0.00;99.90;;;;;;4394804;32;20213;-72
2022/03/20 02:47:38;;;;;;;66.30;29.97;;;0.00;99.90;;;;;;4408289;32;20170;-72
2022/03/20 02:50:13;;;;;;;64.80;28.30;;;-0.10;99.90;;;;;;4409427;32;20139;-72
2022/03/20 02:52:52;;;;;;;63.70;28.63;;;0.00;99.90;;;;;;4409414;32;20155;-72
2022/03/20 02:55:24;;;;;;;61.87;28.07;;;0.00;99.90;;;;;;4394747;32;20225;-72
2022/03/20 02:57:53;;;;;;;65.80;28.13;;;0.00;99.90;;;;;;4409045;32;20385;-72
2022/03/20 03:00:22;;;;;;;69.17;29.53;;;0.00;99.90;;;;;;4409466;32;20134;-72
2022/03/20 03:02:51;;;;;;;63.13;28.90;;;0.00;99.90;;;;;;4397975;32;20232;-72
2022/03/20 03:05:21;;;;;;;61.70;28.00;;;-0.10;99.90;;;;;;4411503;32;20144;-72
2022/03/20 03:10:56;;;;;;;68.40;28.17;;;-0.20;99.90;;;;;;4412979;32;20143;-72
2022/03/20 03:13:28;;;;;;;60.70;26.67;;;-0.30;99.90;;;;;;4410371;32;20182;-72
2022/03/20 03:15:57;;;;;;;67.47;27.93;;;-0.30;99.90;;;;;;4397810;32;20179;-72
2022/03/20 03:18:25;;;;;;;64.33;28.70;;;-0.30;99.90;;;;;;4398020;32;20204;-72
2022/03/20 03:20:53;;;;;;;64.93;29.97;;;-0.40;99.90;;;;;;4411307;32;20208;-72
2022/03/20 03:23:21;;;;;;;67.70;30.03;;;-0.40;99.90;;;;;;4397211;32;20429;-72
2022/03/20 03:25:49;;;;;;;68.23;29.23;;;-0.40;99.90;;;;;;4411575;32;20205;-72
2022/03/20 03:28:16;;;;;;;62.00;28.07;;;-0.50;99.90;;;;;;4397202;32;20481;-72
2022/03/20 03:30:45;;;;;;;63.53;27.80;;;-0.50;99.90;;;;;;4411290;32;20452;-72
2022/03/20 03:33:18;;;;;;;62.83;27.43;;;-0.50;99.90;;;;;;4397327;32;20193;-72
2022/03/20 03:35:51;;;;;;;64.77;27.40;;;-0.60;99.90;;;;;;4397078;32;20183;-73
2022/03/20 03:38:21;;;;;;;59.77;27.00;;;-0.50;99.90;;;;;;4409721;32;20294;-72
2022/03/20 03:40:49;;;;;;;60.97;27.53;;;-0.50;99.90;;;;;;4397394;32;20175;-72
2022/03/20 03:43:18;;;;;;;64.03;26.83;;;-0.50;99.90;;;;;;4411227;32;20131;-72
2022/03/20 03:45:46;;;;;;;57.27;26.60;;;-0.50;99.90;;;;;;4398255;32;20239;-72
2022/03/20 03:48:14;;;;;;;60.17;26.40;;;-0.60;99.90;;;;;;4397018;32;20175;-72
2022/03/20 03:50:44;;;;;;;67.53;26.97;;;-0.60;99.90;;;;;;4397005;32;20182;-72
2022/03/20 03:53:12;;;;;;;55.07;26.17;;;-0.50;99.90;;;;;;4396793;32;20178;-72
2022/03/20 03:55:43;;;;;;;61.47;25.97;;;-0.50;99.90;;;;;;4396555;32;20187;-72
2022/03/20 03:58:12;;;;;;;57.07;24.93;;;-0.50;99.90;;;;;;4397324;32;20166;-72
2022/03/20 04:00:43;;;;;;;62.60;26.23;;;-0.40;99.90;;;;;;4409327;32;20672;-72
2022/03/20 04:03:11;;;;;;;57.83;25.87;;;-0.40;99.90;;;;;;4409967;32;20170;-73
2022/03/20 04:05:39;;;;;;;58.27;25.37;;;-0.40;99.90;;;;;;4396685;32;20198;-72
2022/03/20 04:08:07;;;;;;;59.43;26.47;;;-0.50;99.90;;;;;;4398051;32;20179;-72
2022/03/20 04:10:34;;;;;;;59.33;24.97;;;-0.50;99.90;;;;;;4396891;32;20175;-72
2022/03/20 04:13:02;;;;;;;53.20;24.47;;;-0.50;99.90;;;;;;4409693;32;20204;-72
2022/03/20 04:15:31;;;;;;;59.77;25.70;;;-0.50;99.90;;;;;;4397303;32;20580;-71
2022/03/20 04:18:00;;;;;;;56.93;24.70;;;-0.60;99.90;;;;;;4410808;32;20201;-72
2022/03/20 04:20:28;;;;;;;54.50;24.40;;;-0.60;99.90;;;;;;4396708;32;20174;-72
2022/03/20 04:25:45;;;;;;;56.63;23.83;;;-0.70;99.90;;;;;;4362832;32;20172;-72
2022/03/20 04:28:12;;;;;;;51.20;23.87;;;-0.80;99.90;;;;;;4351883;32;20620;-72
2022/03/20 04:30:39;;;;;;;55.70;24.53;;;-0.80;99.90;;;;;;4350705;33;20541;-73
2022/03/20 04:33:07;;;;;;;51.60;23.77;;;-0.80;99.90;;;;;;4362953;32;20148;-72
2022/03/20 04:35:34;;;;;;;55.13;24.20;;;-0.80;99.90;;;;;;4362944;32;20465;-72
2022/03/20 04:38:04;;;;;;;52.33;23.97;;;-0.80;99.90;;;;;;4364089;32;20159;-72
2022/03/20 04:40:33;;;;;;;54.60;24.13;;;-0.90;99.90;;;;;;4350067;33;20218;-72
2022/03/20 04:43:00;;;;;;;51.20;23.27;;;-0.80;99.90;;;;;;4350370;33;20203;-72
2022/03/20 04:45:28;;;;;;;55.33;23.90;;;-0.80;99.90;;;;;;4350197;33;20248;-72
2022/03/20 04:58:58;;;;;;;49.00;22.50;;;-1.00;99.90;;;;;;4365494;32;20197;-72
2022/03/20 05:01:26;;;;;;;51.53;23.67;;;-0.90;99.90;;;;;;4377039;32;20181;-72
2022/03/20 05:03:53;;;;;;;54.47;23.13;;;-1.00;99.90;;;;;;4393584;32;20175;-72
2022/03/20 05:06:21;;;;;;;52.40;23.97;;;-0.90;99.90;;;;;;4396128;32;20244;-72
2022/03/20 05:08:48;;;;;;;49.90;23.53;;;-0.90;99.90;;;;;;4408913;32;20498;-72
2022/03/20 05:14:01;;;;;;;54.20;23.50;;;-0.90;99.90;;;;;;4410829;32;20477;-72
2022/03/20 05:16:28;;;;;;;54.07;23.60;;;-0.90;99.90;;;;;;4408749;32;20233;-72
2022/03/20 05:18:55;;;;;;;50.43;23.17;;;-0.90;99.90;;;;;;4410081;32;20200;-72
2022/03/20 05:21:22;;;;;;;50.97;23.17;;;-0.90;99.90;;;;;;4395521;32;20182;-72
2022/03/20 05:23:55;;;;;;;55.10;24.20;;;-0.80;99.90;;;;;;4409944;32;20150;-72
2022/03/20 05:26:23;;;;;;;55.30;24.03;;;-0.80;99.90;;;;;;4409587;32;20171;-72
2022/03/20 05:28:50;;;;;;;54.50;23.70;;;-0.70;99.90;;;;;;4395494;32;20206;-72
2022/03/20 05:31:18;;;;;;;49.80;22.63;;;-0.70;99.90;;;;;;4408079;32;20201;-72
2022/03/20 05:33:45;;;;;;;45.83;21.30;;;-0.70;99.90;;;;;;4408256;32;20204;-72
2022/03/20 05:36:12;;;;;;;48.73;22.43;;;-0.60;99.90;;;;;;4395790;32;20239;-72
2022/03/20 05:38:40;;;;;;;48.57;22.10;;;-0.50;99.90;;;;;;4396816;32;20229;-72
2022/03/20 05:43:53;;;;;;;54.40;22.07;;;-0.40;99.90;;;;;;4395930;32;20182;-72
2022/03/20 05:46:20;;;;;;;45.60;20.73;;;-0.30;99.90;;;;;;4395851;32;20230;-72
2022/03/20 05:48:48;;;;;;;47.27;21.30;;;-0.30;99.90;;;;;;4395262;32;20485;-72
2022/03/20 05:51:15;;;;;;;47.50;21.17;;;-0.20;99.90;;;;;;4408207;32;20208;-72
2022/03/20 05:53:42;;;;;;;44.53;20.33;;;-0.20;99.90;;;;;;4409547;32;20135;-72
2022/03/20 05:58:59;;;;;;;43.07;18.63;;;0.00;99.90;;;;;;4409303;32;20214;-72
2022/03/20 06:01:26;;;;;;;41.00;20.00;;;0.10;99.90;;;;;;4408010;32;20206;-72
2022/03/20 06:03:55;;;;;;;42.80;17.87;;;0.20;99.90;;;;;;4395643;32;20236;-72
2022/03/20 06:06:22;;;;;;;36.53;18.03;;;0.30;99.70;;;;;;4408677;32;20147;-72
2022/03/20 06:08:50;;;;;;;36.00;16.83;;;0.40;98.40;;;;;;4394778;32;20171;-72
2022/03/20 06:11:17;;;;;;;36.23;17.70;;;0.50;97.50;;;;;;4409707;32;20205;-72
2022/03/20 06:13:45;;;;;;;37.40;17.40;;;0.60;96.50;;;;;;4408962;32;20392;-72
2022/03/20 06:16:14;;;;;;;36.20;16.43;;;0.70;96.50;;;;;;4396659;32;20456;-72
2022/03/20 06:18:44;;;;;;;36.53;16.77;;;0.90;95.80;;;;;;4395613;32;20202;-72
2022/03/20 06:21:11;;;;;;;34.73;16.70;;;1.00;95.30;;;;;;4394813;32;20268;-72
2022/03/20 06:23:39;;;;;;;33.27;16.23;;;1.10;94.60;;;;;;4394971;32;20202;-72
2022/03/20 06:26:09;;;;;;;34.10;17.50;;;1.20;93.60;;;;;;4407904;32;20179;-72
2022/03/20 06:28:40;;;;;;;38.13;18.07;;;1.30;93.80;;;;;;4394952;32;20175;-72
2022/03/20 06:31:12;;;;;;;33.17;16.47;;;1.40;94.50;;;;;;4395849;32;20175;-72
2022/03/20 06:33:56;;;;;;;35.23;17.77;;;1.60;92.70;;;;;;4409228;32;20449;-72
2022/03/20 06:36:24;;;;;;;38.10;17.90;;;1.70;92.10;;;;;;4410992;32;20186;-72
2022/03/20 06:38:51;;;;;;;34.27;17.00;;;1.80;92.40;;;;;;4397902;32;20462;-72
2022/03/20 06:41:19;;;;;;;33.77;16.83;;;1.80;91.20;;;;;;4410340;32;20583;-72
2022/03/20 06:43:46;;;;;;;37.43;17.07;;;1.90;91.30;;;;;;4413459;32;20165;-72
2022/03/20 06:46:14;;;;;;;36.37;17.43;;;2.20;90.00;;;;;;4398147;32;20172;-72
2022/03/20 06:48:55;;;;;;;39.33;17.97;;;2.50;87.70;;;;;;4413390;32;20869;-72
2022/03/20 06:51:28;;;;;;;41.00;18.83;;;2.50;88.30;;;;;;4418369;32;20183;-72
2022/03/20 06:53:56;;;;;;;36.60;18.33;;;2.60;87.60;;;;;;4412930;32;20462;-71
2022/03/20 06:56:23;;;;;;;40.57;18.63;;;2.60;87.30;;;;;;4398294;32;20183;-72
2022/03/20 06:58:50;;;;;;;36.20;18.40;;;2.60;88.20;;;;;;4413388;32;20412;-72
2022/03/20 07:01:18;;;;;;;39.33;17.80;;;2.60;87.00;;;;;;4397362;32;20491;-72
2022/03/20 07:03:46;;;;;;;36.57;18.07;;;2.70;87.20;;;;;;4399138;32;20561;-72
2022/03/20 07:06:13;;;;;;;34.93;17.07;;;2.70;87.00;;;;;;4397267;32;20582;-72
2022/03/20 07:08:40;;;;;;;38.80;17.90;;;2.80;85.20;;;;;;4398074;32;20466;-72
2022/03/20 07:11:07;;;;;;;36.80;17.90;;;2.80;84.30;;;;;;4397684;32;20424;-72
2022/03/20 07:13:50;;;;;;;31.80;17.03;;;3.00;83.50;;;;;;4398765;32;20173;-72
2022/03/20 07:16:19;;;;;;;32.57;16.60;;;3.00;84.10;;;;;;4397102;32;20227;-72
2022/03/20 07:18:47;;;;;;;31.43;16.00;;;3.10;83.30;;;;;;4411521;32;20144;-72
2022/03/20 07:21:15;;;;;;;31.37;16.20;;;3.20;81.20;;;;;;4398001;32;20565;-72
2022/03/20 07:23:42;;;;;;;37.40;16.50;;;3.20;81.20;;;;;;4411660;32;20229;-72
2022/03/20 07:31:42;;;;;;;39.13;17.03;;;3.50;80.20;;;;;;4410021;32;20200;-72
2022/03/20 07:34:10;;;;;;;36.97;17.00;;;3.60;79.20;;;;;;4397884;32;20230;-72
2022/03/20 07:36:37;;;;;;;33.97;16.70;;;3.70;76.80;;;;;;4410238;32;20195;-72
2022/03/20 07:39:05;;;;;;;36.00;17.30;;;3.70;77.80;;;;;;4397717;32;20190;-72
2022/03/20 07:41:33;;;;;;;35.83;17.43;;;3.80;78.50;;;;;;4398071;32;20432;-72
2022/03/20 07:44:00;;;;;;;35.80;17.20;;;4.00;78.70;;;;;;4397780;32;20167;-72
2022/03/20 07:46:28;;;;;;;34.90;17.20;;;4.10;78.30;;;;;;4397436;32;20170;-72
2022/03/20 07:48:55;;;;;;;35.73;17.40;;;4.20;77.90;;;;;;4410965;32;20475;-72
2022/03/20 07:51:23;;;;;;;35.30;17.23;;;4.30;77.50;;;;;;4399496;32;20182;-72
2022/03/20 07:53:50;;;;;;;35.40;16.83;;;4.40;76.60;;;;;;4415153;32;20242;-72
2022/03/20 07:56:21;;;;;;;34.63;16.30;;;4.50;75.80;;;;;;4398207;32;20180;-72
2022/03/20 07:58:52;;;;;;;32.07;16.13;;;4.60;74.90;;;;;;4396663;32;20526;-72
2022/03/20 08:01:19;;;;;;;34.57;16.67;;;4.70;73.10;;;;;;4398132;32;20547;-72
2022/03/20 08:03:50;;;;;;;31.77;16.63;;;4.80;72.50;;;;;;4397326;32;20503;-72
2022/03/20 08:06:18;;;;;;;32.90;15.10;;;4.90;72.30;;;;;;4410174;32;20159;-72
2022/03/20 08:08:45;;;;;;;32.77;16.13;;;5.00;70.90;;;;;;4396415;32;20507;-72
2022/03/20 08:11:12;;;;;;;31.23;16.43;;;5.10;69.50;;;;;;4409906;32;20596;-72
2022/03/20 08:13:40;;;;;;;25.37;14.13;;;5.30;69.80;;;;;;4383793;32;20525;-72
2022/03/20 08:16:09;;;;;;;31.33;14.47;;;5.40;67.50;;;;;;4408939;32;20226;-72
2022/03/20 08:18:37;;;;;;;27.23;14.67;;;5.50;67.60;;;;;;4396690;32;20179;-72
2022/03/20 08:21:05;;;;;;;27.97;14.27;;;5.60;67.00;;;;;;4411137;32;20178;-72
2022/03/20 08:23:32;;;;;;;28.23;13.93;;;5.70;64.80;;;;;;4404067;32;20210;-72
2022/03/20 08:25:59;;;;;;;27.53;13.47;;;6.10;65.20;;;;;;4406070;32;20237;-72
2022/03/20 08:28:26;;;;;;;27.50;12.77;;;6.80;60.70;;;;;;4394915;32;20142;-72
2022/03/20 08:30:54;;;;;;;24.93;12.33;;;7.50;59.70;;;;;;4394970;32;20160;-72
2022/03/20 08:33:21;;;;;;;22.67;12.30;;;8.30;57.30;;;;;;4393764;32;20189;-72
2022/03/20 08:35:48;;;;;;;21.23;11.57;;;9.00;53.80;;;;;;4406601;32;20175;-72
2022/03/20 08:38:17;;;;;;;23.60;12.10;;;9.40;52.80;;;;;;4406710;32;20191;-72
2022/03/20 08:40:44;;;;;;;23.30;11.43;;;9.80;51.20;;;;;;4406025;32;20484;-72
2022/03/20 08:43:15;;;;;;;19.50;10.67;;;10.30;49.50;;;;;;4406576;32;20179;-71
2022/03/20 08:45:44;;;;;;;22.10;11.60;;;10.70;48.20;;;;;;4406031;32;20486;-72
2022/03/20 08:48:12;;;;;;;24.37;11.77;;;10.90;46.60;;;;;;4395470;32;20193;-69
2022/03/20 08:50:40;;;;;;;19.87;11.30;;;11.20;46.30;;;;;;4407242;32;20201;-69
2022/03/20 08:53:07;;;;;;;21.43;11.43;;;11.60;45.40;;;;;;4394629;32;20135;-70
2022/03/20 08:55:34;;;;;;;22.87;11.13;;;11.90;44.40;;;;;;4406271;32;20206;-69
2022/03/20 08:58:04;;;;;;;21.97;11.60;;;12.40;43.50;;;;;;4401052;32;20475;-70
2022/03/20 09:00:34;;;;;;;21.40;11.33;;;12.90;42.50;;;;;;4401674;32;20178;-69
2022/03/20 09:03:02;;;;;;;21.20;10.80;;;13.30;41.90;;;;;;4398579;32;20175;-70
2022/03/20 09:05:29;;;;;;;19.50;10.03;;;13.50;40.50;;;;;;4393926;32;20180;-69
2022/03/20 09:07:57;;;;;;;19.73;10.60;;;13.70;39.20;;;;;;4408859;32;20143;-69
2022/03/20 09:10:25;;;;;;;17.23;9.93;;;13.60;38.60;;;;;;4408562;32;20171;-69
2022/03/20 09:12:57;;;;;;;16.33;9.37;;;13.60;38.40;;;;;;4408796;32;20438;-69
2022/03/20 09:15:25;;;;;;;18.23;10.20;;;13.60;37.80;;;;;;4400905;32;20446;-68
2022/03/20 09:20:41;;;;;;;18.97;10.13;;;14.40;38.00;;;;;;4393059;32;20182;-69
2022/03/20 09:23:10;;;;;;;17.33;9.87;;;14.70;36.60;;;;;;4393486;32;20224;-69
2022/03/20 09:25:37;;;;;;;19.03;10.03;;;14.80;35.60;;;;;;4397265;32;20247;-70
2022/03/20 09:28:07;;;;;;;18.37;9.70;;;14.80;35.80;;;;;;4409004;32;20179;-69
2022/03/20 09:30:38;;;;;;;20.43;10.03;;;15.20;35.80;;;;;;4407900;32;20166;-70
2022/03/20 09:33:06;;;;;;;15.80;9.07;;;15.40;35.40;;;;;;4410490;32;20216;-69
2022/03/20 09:35:34;;;;;;;16.77;8.70;;;15.40;34.00;;;;;;4405386;32;20183;-69
2022/03/20 09:38:07;;;;;;;15.40;8.43;;;15.30;33.50;;;;;;4399926;32;20190;-69
2022/03/20 09:40:37;;;;;;;13.03;7.77;;;15.50;33.50;;;;;;4395939;32;20175;-70
2022/03/20 09:43:05;;;;;;;16.17;7.77;;;15.60;32.50;;;;;;4396571;32;20196;-69
2022/03/20 09:45:33;;;;;;;11.60;7.63;;;15.90;32.00;;;;;;4409506;32;20193;-69
2022/03/20 09:48:03;;;;;;;13.10;7.83;;;16.10;32.00;;;;;;4409851;32;20135;-69
2022/03/20 09:50:31;;;;;;;15.17;8.00;;;16.30;31.30;;;;;;4394872;32;20460;-69
2022/03/20 09:52:59;;;;;;;14.03;7.80;;;16.50;31.20;;;;;;4395134;32;20233;-70
2022/03/20 09:55:26;;;;;;;11.80;7.50;;;16.70;31.90;;;;;;4396398;32;20195;-69
2022/03/20 09:57:58;;;;;;;11.47;7.77;;;16.90;30.50;;;;;;4394809;32;20194;-69
2022/03/20 10:00:25;;;;;;;14.43;7.50;;;17.20;30.30;;;;;;4404330;32;20167;-69
2022/03/20 10:02:53;;;;;;;12.70;7.50;;;17.20;29.80;;;;;;4410056;32;20205;-69
2022/03/20 10:05:28;;;;;;;11.33;6.97;;;17.10;29.60;;;;;;4410218;32;20227;-69
2022/03/20 10:08:19;;;;;;;12.67;7.27;;;17.10;29.90;;;;;;4425771;32;20480;-68
2022/03/20 10:10:47;;;;;;;11.57;7.67;;;17.20;29.90;;;;;;4405193;32;20246;-69
2022/03/20 10:13:15;;;;;;;13.23;7.60;;;17.40;29.70;;;;;;4399392;32;20194;-69
2022/03/20 10:15:44;;;;;;;12.77;7.80;;;17.60;29.50;;;;;;4394826;32;20288;-69
2022/03/20 10:18:20;;;;;;;12.13;7.53;;;18.10;28.80;;;;;;4395720;32;20163;-69
2022/03/20 10:21:00;;;;;;;13.83;7.37;;;18.30;28.70;;;;;;4409200;32;20173;-69
2022/03/20 10:23:29;;;;;;;13.37;7.70;;;18.20;28.80;;;;;;4408770;32;20168;-69
2022/03/20 10:25:57;;;;;;;12.90;8.00;;;18.10;28.60;;;;;;4395059;32;20179;-69
2022/03/20 10:28:38;;;;;;;13.13;7.70;;;17.90;28.60;;;;;;4394921;32;20174;-69
2022/03/20 10:31:09;;;;;;;12.40;7.53;;;18.10;29.40;;;;;;4409597;32;20482;-70
2022/03/20 10:33:40;;;;;;;12.80;7.77;;;18.40;29.20;;;;;;4406125;32;20225;-69
2022/03/20 10:36:21;;;;;;;12.53;7.77;;;18.60;28.70;;;;;;4407878;32;20541;-69
2022/03/20 10:38:49;;;;;;;12.53;7.83;;;18.80;28.50;;;;;;4408852;32;20169;-69
2022/03/20 10:41:24;;;;;;;15.30;8.07;;;18.90;28.40;;;;;;4401999;32;20259;-69
2022/03/20 10:43:53;;;;;;;13.27;8.10;;;19.10;28.80;;;;;;4397639;32;20181;-69
2022/03/20 10:46:29;;;;;;;14.10;8.13;;;19.50;28.20;;;;;;4410209;32;20163;-69
2022/03/20 10:49:02;;;;;;;12.30;7.67;;;19.50;28.00;;;;;;4424213;32;20139;-68
2022/03/20 10:51:40;;;;;;;12.53;8.03;;;19.70;27.60;;;;;;4409859;32;20193;-68
2022/03/20 10:54:22;;;;;;;12.57;8.27;;;20.00;28.00;;;;;;4411100;32;20228;-69
2022/03/20 10:56:56;;;;;;;14.23;8.00;;;20.20;27.40;;;;;;4409703;32;20201;-69
2022/03/20 10:59:25;;;;;;;12.63;8.10;;;20.20;27.10;;;;;;4423786;32;20406;-69
2022/03/20 11:01:53;;;;;;;12.43;7.77;;;20.30;27.40;;;;;;4409806;32;20201;-70
2022/03/20 11:04:21;;;;;;;12.27;7.83;;;20.30;26.90;;;;;;4413536;32;20241;-69
2022/03/20 11:06:54;;;;;;;13.23;8.20;;;20.20;27.00;;;;;;4410772;32;20223;-69
2022/03/20 11:09:21;;;;;;;14.30;8.10;;;20.40;27.10;;;;;;4409362;32;20190;-70
2022/03/20 11:11:51;;;;;;;14.03;8.17;;;20.40;26.80;;;;;;4402608;32;20171;-69
2022/03/20 11:14:21;;;;;;;14.33;8.43;;;20.40;27.00;;;;;;4408566;32;20477;-69
2022/03/20 11:16:56;;;;;;;12.77;8.20;;;20.50;27.10;;;;;;4394063;32;20179;-69
2022/03/20 11:19:28;;;;;;;12.03;8.00;;;20.50;26.80;;;;;;4408241;32;20220;-69
2022/03/20 11:22:03;;;;;;;12.00;7.53;;;20.60;26.70;;;;;;4409015;32;20138;-69
2022/03/20 11:24:31;;;;;;;12.80;7.83;;;20.60;26.40;;;;;;4396967;32;20178;-70
2022/03/20 11:27:04;;;;;;;13.67;8.50;;;20.50;26.40;;;;;;4396864;32;20236;-69
2022/03/20 11:29:42;;;;;;;13.60;8.17;;;20.80;26.60;;;;;;4397366;32;20202;-70
2022/03/20 11:32:11;;;;;;;13.87;8.27;;;20.90;26.40;;;;;;4417275;32;20158;-69
2022/03/20 11:34:38;;;;;;;13.00;8.07;;;21.00;26.50;;;;;;4409695;32;20198;-69
2022/03/20 11:37:10;;;;;;;12.63;8.50;;;21.10;26.10;;;;;;4421859;32;20147;-69
2022/03/20 11:39:59;;;;;;;14.13;8.93;;;21.50;26.10;;;;;;4412331;32;20188;-69
2022/03/20 11:42:28;;;;;;;12.95;8.65;;;22.30;26.10;;;;;;4404252;32;20179;-69
2022/03/20 11:45:05;;;;;;;13.18;8.80;;;23.20;25.60;;;;;;4426026;32;20143;-70
2022/03/20 11:47:33;;;;;;;13.75;8.93;;;24.40;24.90;;;;;;4412170;32;20227;-70
2022/03/20 11:50:25;;;;;;;14.98;9.23;;;25.20;24.10;;;;;;4412670;32;20162;-70
2022/03/20 11:53:03;;;;;;;15.35;9.15;;;25.50;23.30;;;;;;4425984;32;20150;-69
2022/03/20 11:55:34;;;;;;;15.65;9.25;;;26.10;23.00;;;;;;4411681;32;20166;-69
2022/03/20 11:58:21;;;;;;;14.35;9.13;;;26.40;22.50;;;;;;4410288;32;20228;-70
2022/03/20 12:01:04;;;;;;;14.13;9.23;;;26.80;22.90;;;;;;4402955;32;20199;-70
2022/03/20 12:03:47;;;;;;;13.02;9.18;;;26.50;22.40;;;;;;4396795;32;20174;-70
2022/03/20 12:06:59;;;;;;;12.55;8.70;;;26.90;22.20;;;;;;4400722;32;20190;-70
2022/03/20 12:09:55;;;;;;;12.48;8.23;;;26.80;22.10;;;;;;4408486;32;20189;-71
2022/03/20 12:12:44;;;;;;;11.95;8.00;;;27.30;22.00;;;;;;4404780;32;20195;-70
2022/03/20 12:15:11;;;;;;;12.30;9.07;;;27.30;21.70;;;;;;4395999;32;20174;-70
2022/03/20 12:18:04;;;;;;;11.73;8.07;;;27.20;21.60;;;;;;4408012;32;20174;-70
2022/03/20 12:20:59;;;;;;;14.30;8.75;;;27.10;21.50;;;;;;4409472;32;20501;-69
2022/03/20 12:23:35;;;;;;;13.25;8.32;;;26.80;21.50;;;;;;4409984;32;20163;-70
2022/03/20 12:26:30;;;;;;;12.32;8.52;;;26.50;21.70;;;;;;4409855;32;20162;-71
2022/03/20 12:29:26;;;;;;;14.38;8.48;;;27.30;22.50;;;;;;4407936;32;20213;-70
2022/03/20 12:32:07;;;;;;;12.40;8.50;;;28.20;21.50;;;;;;4410473;32;20232;-69
2022/03/20 12:34:34;;;;;;;11.80;8.27;;;28.10;21.50;;;;;;4408916;32;20174;-69
2022/03/20 12:37:30;;;;;;;12.00;7.97;;;27.90;21.00;;;;;;4396228;32;20170;-70
2022/03/20 12:40:19;;;;;;;11.15;7.53;;;27.60;20.80;;;;;;4414400;32;20165;-69
2022/03/20 12:43:14;;;;;;;10.75;7.68;;;26.60;20.90;;;;;;4426651;32;20139;-70
2022/03/20 12:45:51;;;;;;;10.85;7.82;;;26.10;21.60;;;;;;4407144;32;20178;-69
2022/03/20 12:48:21;;;;;;;12.45;8.20;;;25.90;21.70;;;;;;4396987;32;20190;-68
2022/03/20 12:51:10;;;;;;;14.05;7.90;;;26.20;21.80;;;;;;4396486;32;20174;-69
2022/03/20 12:53:47;;;;;;;12.35;8.27;;;26.60;21.40;;;;;;4409932;32;20159;-69
2022/03/20 12:56:33;;;;;;;12.07;8.23;;;27.20;21.60;;;;;;4395613;32;20194;-69
2022/03/20 12:59:17;;;;;;;11.48;7.97;;;27.40;21.00;;;;;;4396424;32;20198;-69
2022/03/20 13:01:51;;;;;;;11.73;7.93;;;27.30;21.10;;;;;;4410560;32;20161;-69
2022/03/20 13:04:23;;;;;;;12.45;7.97;;;26.80;21.70;;;;;;4396002;32;20265;-69
2022/03/20 13:06:54;;;;;;;11.00;8.00;;;26.60;21.50;;;;;;4396344;32;20197;-69
2022/03/20 13:09:25;;;;;;;11.82;7.60;;;26.00;21.60;;;;;;4396940;32;20189;-70
2022/03/20 13:11:59;;;;;;;13.07;8.18;;;25.20;22.10;;;;;;4396702;32;20248;-73
2022/03/20 13:14:48;;;;;;;11.32;7.80;;;25.20;22.20;;;;;;4397277;32;20226;-76
2022/03/20 13:17:34;;;;;;;10.82;7.37;;;24.70;22.10;;;;;;4416915;32;20177;-75
2022/03/20 13:20:16;;;;;;;13.52;7.70;;;24.70;22.60;;;;;;4408594;32;20451;-76
2022/03/20 13:33:59;;;;;;;9.90;6.65;;;23.20;23.70;;;;;;4287746;33;20215;-76
2022/03/20 13:36:38;;;;;;;9.23;6.53;;;22.60;23.80;;;;;;4291378;33;20511;-76
2022/03/20 13:39:11;;;;;;;9.63;6.67;;;22.20;24.20;;;;;;4291704;33;20228;-76